Terminal Aerodrome Forecast
Issued by NWS Sterling, VA

Current Version | Previous Version | Graphics & Text | Print | Product List | Glossary On
Versions: 1 2 3 4 5 6 7 8 9 10 11 12 13 14 15 16 17 18 19 20 21 22 23 24 25 26 27
103
FTUS41 KLWX 191736
TAFDCA
TAF
KDCA 191736Z 1918/2024 19007KT 2SM -DZ OVC025
     FM192100 19007KT 2SM -DZ BKN008 OVC025
     FM200000 19006KT 4SM -DZ BR BKN025
     FM200300 20007KT 4SM BR SCT025 BKN035
     FM200700 20007KT 3SM BR SCT025 BKN090 WS020/23040KT
     FM201500 21011G18KT P6SM FEW025 SCT090=

USA.gov is the U.S. government's official web portal to all federal, state and local government web resources and services.